sensor_id;sensor_type;location;lat;lon;timestamp;P1;durP1;ratioP1;P2;durP2;ratioP2
75971;SDS011;64651;47.540;19.088;2023-04-24T00:03:24;16.92;;;10.15;;
75971;SDS011;64651;47.540;19.088;2023-04-24T00:08:28;18.62;;;11.05;;
75971;SDS011;64651;47.540;19.088;2023-04-24T00:13:30;16.58;;;10.65;;
75971;SDS011;64651;47.540;19.088;2023-04-24T00:18:32;17.83;;;10.63;;
75971;SDS011;64651;47.540;19.088;2023-04-24T00:23:34;18.80;;;10.88;;
75971;SDS011;64651;47.540;19.088;2023-04-24T00:28:36;19.30;;;11.52;;
75971;SDS011;64651;47.540;19.088;2023-04-24T00:33:38;18.95;;;11.75;;
75971;SDS011;64651;47.540;19.088;2023-04-24T00:38:41;18.35;;;11.05;;
75971;SDS011;64651;47.540;19.088;2023-04-24T00:43:43;19.20;;;10.50;;
75971;SDS011;64651;47.540;19.088;2023-04-24T00:48:46;18.42;;;10.88;;
75971;SDS011;64651;47.540;19.088;2023-04-24T00:53:48;16.70;;;10.90;;
75971;SDS011;64651;47.540;19.088;2023-04-24T00:58:51;15.85;;;10.07;;
75971;SDS011;64651;47.540;19.088;2023-04-24T01:03:53;17.48;;;9.98;;
75971;SDS011;64651;47.540;19.088;2023-04-24T01:08:58;16.50;;;10.07;;
75971;SDS011;64651;47.540;19.088;2023-04-24T01:14:01;16.23;;;9.63;;
75971;SDS011;64651;47.540;19.088;2023-04-24T01:19:03;15.30;;;8.43;;
75971;SDS011;64651;47.540;19.088;2023-04-24T01:24:07;14.43;;;8.60;;
75971;SDS011;64651;47.540;19.088;2023-04-24T01:29:10;14.40;;;8.57;;
75971;SDS011;64651;47.540;19.088;2023-04-24T01:34:12;15.17;;;9.27;;
75971;SDS011;64651;47.540;19.088;2023-04-24T01:39:15;16.12;;;8.52;;
75971;SDS011;64651;47.540;19.088;2023-04-24T01:44:18;15.02;;;8.85;;
75971;SDS011;64651;47.540;19.088;2023-04-24T01:49:20;13.90;;;8.60;;
75971;SDS011;64651;47.540;19.088;2023-04-24T01:54:23;15.73;;;8.32;;
75971;SDS011;64651;47.540;19.088;2023-04-24T01:59:25;19.30;;;10.03;;
75971;SDS011;64651;47.540;19.088;2023-04-24T02:04:29;18.92;;;10.13;;
75971;SDS011;64651;47.540;19.088;2023-04-24T02:09:32;18.85;;;11.88;;
75971;SDS011;64651;47.540;19.088;2023-04-24T02:14:34;18.48;;;11.80;;
75971;SDS011;64651;47.540;19.088;2023-04-24T02:19:36;22.92;;;12.13;;
75971;SDS011;64651;47.540;19.088;2023-04-24T02:24:38;21.43;;;12.07;;
75971;SDS011;64651;47.540;19.088;2023-04-24T02:29:40;21.10;;;13.00;;
75971;SDS011;64651;47.540;19.088;2023-04-24T02:34:43;23.20;;;13.68;;
75971;SDS011;64651;47.540;19.088;2023-04-24T02:39:45;21.58;;;13.13;;
75971;SDS011;64651;47.540;19.088;2023-04-24T02:44:47;20.58;;;13.70;;
75971;SDS011;64651;47.540;19.088;2023-04-24T02:49:49;20.37;;;12.23;;
75971;SDS011;64651;47.540;19.088;2023-04-24T02:54:51;23.33;;;12.98;;
75971;SDS011;64651;47.540;19.088;2023-04-24T02:59:55;19.98;;;12.77;;
75971;SDS011;64651;47.540;19.088;2023-04-24T03:04:57;20.48;;;12.80;;
75971;SDS011;64651;47.540;19.088;2023-04-24T03:09:59;18.85;;;10.77;;
75971;SDS011;64651;47.540;19.088;2023-04-24T03:15:01;18.77;;;12.80;;
75971;SDS011;64651;47.540;19.088;2023-04-24T03:20:04;20.23;;;12.02;;
75971;SDS011;64651;47.540;19.088;2023-04-24T03:25:07;19.42;;;12.65;;
75971;SDS011;64651;47.540;19.088;2023-04-24T03:30:11;22.73;;;13.40;;
75971;SDS011;64651;47.540;19.088;2023-04-24T03:35:13;23.35;;;13.25;;
75971;SDS011;64651;47.540;19.088;2023-04-24T03:40:15;21.23;;;13.13;;
75971;SDS011;64651;47.540;19.088;2023-04-24T03:45:17;18.90;;;12.07;;
75971;SDS011;64651;47.540;19.088;2023-04-24T03:50:20;20.40;;;13.10;;
75971;SDS011;64651;47.540;19.088;2023-04-24T03:55:23;19.83;;;12.43;;
75971;SDS011;64651;47.540;19.088;2023-04-24T04:00:25;20.80;;;13.27;;
75971;SDS011;64651;47.540;19.088;2023-04-24T04:05:28;18.73;;;11.47;;
75971;SDS011;64651;47.540;19.088;2023-04-24T04:10:30;24.12;;;13.02;;
75971;SDS011;64651;47.540;19.088;2023-04-24T04:15:32;20.85;;;12.63;;
75971;SDS011;64651;47.540;19.088;2023-04-24T04:20:34;20.65;;;13.05;;
75971;SDS011;64651;47.540;19.088;2023-04-24T04:25:36;19.52;;;12.75;;
75971;SDS011;64651;47.540;19.088;2023-04-24T04:30:39;21.63;;;13.60;;
75971;SDS011;64651;47.540;19.088;2023-04-24T04:35:41;21.10;;;13.25;;
75971;SDS011;64651;47.540;19.088;2023-04-24T04:40:44;19.98;;;13.30;;
75971;SDS011;64651;47.540;19.088;2023-04-24T04:45:47;19.93;;;13.30;;
75971;SDS011;64651;47.540;19.088;2023-04-24T04:50:50;21.23;;;13.35;;
75971;SDS011;64651;47.540;19.088;2023-04-24T04:55:52;21.27;;;13.63;;
75971;SDS011;64651;47.540;19.088;2023-04-24T05:00:55;21.40;;;12.85;;
75971;SDS011;64651;47.540;19.088;2023-04-24T05:05:59;19.30;;;13.15;;
75971;SDS011;64651;47.540;19.088;2023-04-24T05:11:01;19.50;;;13.07;;
75971;SDS011;64651;47.540;19.088;2023-04-24T05:16:04;19.67;;;12.98;;
75971;SDS011;64651;47.540;19.088;2023-04-24T05:21:06;21.10;;;13.53;;
75971;SDS011;64651;47.540;19.088;2023-04-24T05:26:13;21.62;;;13.55;;
75971;SDS011;64651;47.540;19.088;2023-04-24T05:31:17;20.70;;;12.82;;
75971;SDS011;64651;47.540;19.088;2023-04-24T05:36:22;20.33;;;12.63;;
75971;SDS011;64651;47.540;19.088;2023-04-24T05:41:24;18.95;;;13.25;;
75971;SDS011;64651;47.540;19.088;2023-04-24T05:46:26;18.03;;;12.67;;
75971;SDS011;64651;47.540;19.088;2023-04-24T05:51:29;20.17;;;11.60;;
75971;SDS011;64651;47.540;19.088;2023-04-24T05:56:31;19.10;;;11.43;;
75971;SDS011;64651;47.540;19.088;2023-04-24T06:01:33;20.33;;;11.50;;
75971;SDS011;64651;47.540;19.088;2023-04-24T06:06:35;16.98;;;11.48;;
75971;SDS011;64651;47.540;19.088;2023-04-24T06:11:38;16.93;;;10.57;;
75971;SDS011;64651;47.540;19.088;2023-04-24T06:16:41;18.02;;;10.75;;
75971;SDS011;64651;47.540;19.088;2023-04-24T06:21:44;18.55;;;11.55;;
75971;SDS011;64651;47.540;19.088;2023-04-24T06:26:46;17.97;;;11.80;;
75971;SDS011;64651;47.540;19.088;2023-04-24T06:31:48;20.00;;;12.88;;
75971;SDS011;64651;47.540;19.088;2023-04-24T06:36:51;18.30;;;11.47;;
75971;SDS011;64651;47.540;19.088;2023-04-24T06:41:53;19.48;;;11.45;;
75971;SDS011;64651;47.540;19.088;2023-04-24T06:46:55;19.85;;;12.45;;
75971;SDS011;64651;47.540;19.088;2023-04-24T06:51:58;20.27;;;13.33;;
75971;SDS011;64651;47.540;19.088;2023-04-24T06:57:00;19.90;;;12.35;;
75971;SDS011;64651;47.540;19.088;2023-04-24T07:02:02;19.97;;;12.20;;
75971;SDS011;64651;47.540;19.088;2023-04-24T07:07:05;22.55;;;13.62;;
75971;SDS011;64651;47.540;19.088;2023-04-24T07:12:08;21.12;;;13.02;;
75971;SDS011;64651;47.540;19.088;2023-04-24T07:17:12;20.43;;;11.57;;
75971;SDS011;64651;47.540;19.088;2023-04-24T07:22:15;19.58;;;12.10;;
75971;SDS011;64651;47.540;19.088;2023-04-24T07:27:18;17.43;;;11.50;;
75971;SDS011;64651;47.540;19.088;2023-04-24T07:32:21;19.52;;;11.38;;
75971;SDS011;64651;47.540;19.088;2023-04-24T07:37:23;17.23;;;10.52;;
75971;SDS011;64651;47.540;19.088;2023-04-24T07:42:25;15.87;;;10.67;;
75971;SDS011;64651;47.540;19.088;2023-04-24T07:47:28;18.52;;;11.20;;
75971;SDS011;64651;47.540;19.088;2023-04-24T07:52:30;16.67;;;11.07;;
75971;SDS011;64651;47.540;19.088;2023-04-24T07:57:32;17.55;;;11.00;;
75971;SDS011;64651;47.540;19.088;2023-04-24T08:02:34;17.10;;;11.02;;
75971;SDS011;64651;47.540;19.088;2023-04-24T08:07:37;16.93;;;10.13;;
75971;SDS011;64651;47.540;19.088;2023-04-24T08:12:40;15.32;;;10.43;;
75971;SDS011;64651;47.540;19.088;2023-04-24T08:17:42;16.43;;;11.27;;
75971;SDS011;64651;47.540;19.088;2023-04-24T08:22:45;15.93;;;10.85;;
75971;SDS011;64651;47.540;19.088;2023-04-24T08:27:49;15.23;;;11.05;;
75971;SDS011;64651;47.540;19.088;2023-04-24T08:32:52;17.60;;;11.77;;
75971;SDS011;64651;47.540;19.088;2023-04-24T08:37:54;16.12;;;12.20;;
75971;SDS011;64651;47.540;19.088;2023-04-24T08:42:56;17.47;;;11.90;;
75971;SDS011;64651;47.540;19.088;2023-04-24T08:48:00;16.92;;;10.90;;
75971;SDS011;64651;47.540;19.088;2023-04-24T08:53:04;17.23;;;11.32;;
75971;SDS011;64651;47.540;19.088;2023-04-24T08:58:07;15.97;;;10.47;;
75971;SDS011;64651;47.540;19.088;2023-04-24T09:03:10;15.75;;;10.30;;
75971;SDS011;64651;47.540;19.088;2023-04-24T09:08:13;16.17;;;9.97;;
75971;SDS011;64651;47.540;19.088;2023-04-24T09:13:16;18.10;;;10.77;;
75971;SDS011;64651;47.540;19.088;2023-04-24T09:18:18;15.55;;;10.52;;
75971;SDS011;64651;47.540;19.088;2023-04-24T09:23:21;14.73;;;10.23;;
75971;SDS011;64651;47.540;19.088;2023-04-24T09:28:30;15.63;;;9.55;;
75971;SDS011;64651;47.540;19.088;2023-04-24T09:33:34;15.13;;;9.80;;
75971;SDS011;64651;47.540;19.088;2023-04-24T09:38:38;12.85;;;8.48;;
75971;SDS011;64651;47.540;19.088;2023-04-24T09:43:40;13.88;;;8.43;;
75971;SDS011;64651;47.540;19.088;2023-04-24T09:48:42;12.00;;;7.97;;
75971;SDS011;64651;47.540;19.088;2023-04-24T09:53:45;12.25;;;7.80;;
75971;SDS011;64651;47.540;19.088;2023-04-24T09:58:49;12.77;;;8.27;;
75971;SDS011;64651;47.540;19.088;2023-04-24T10:03:51;11.82;;;8.02;;
75971;SDS011;64651;47.540;19.088;2023-04-24T10:08:53;11.80;;;7.45;;
75971;SDS011;64651;47.540;19.088;2023-04-24T10:13:56;14.40;;;6.87;;
75971;SDS011;64651;47.540;19.088;2023-04-24T10:18:59;11.05;;;7.35;;
75971;SDS011;64651;47.540;19.088;2023-04-24T10:24:02;12.33;;;7.90;;
75971;SDS011;64651;47.540;19.088;2023-04-24T10:29:06;12.90;;;7.55;;
75971;SDS011;64651;47.540;19.088;2023-04-24T10:34:11;16.98;;;7.95;;
75971;SDS011;64651;47.540;19.088;2023-04-24T10:39:14;14.30;;;8.73;;
75971;SDS011;64651;47.540;19.088;2023-04-24T10:44:17;13.25;;;7.75;;
75971;SDS011;64651;47.540;19.088;2023-04-24T10:49:27;14.17;;;7.73;;
75971;SDS011;64651;47.540;19.088;2023-04-24T10:59:45;14.43;;;8.02;;
75971;SDS011;64651;47.540;19.088;2023-04-24T11:04:49;14.87;;;9.37;;
75971;SDS011;64651;47.540;19.088;2023-04-24T11:09:59;14.93;;;9.85;;
75971;SDS011;64651;47.540;19.088;2023-04-24T11:15:03;17.33;;;10.40;;
75971;SDS011;64651;47.540;19.088;2023-04-24T11:20:06;16.20;;;10.18;;
75971;SDS011;64651;47.540;19.088;2023-04-24T11:25:30;15.82;;;9.30;;
75971;SDS011;64651;47.540;19.088;2023-04-24T11:30:33;17.17;;;10.83;;
75971;SDS011;64651;47.540;19.088;2023-04-24T11:35:38;14.73;;;9.30;;
75971;SDS011;64651;47.540;19.088;2023-04-24T11:40:42;16.30;;;10.47;;
75971;SDS011;64651;47.540;19.088;2023-04-24T11:45:47;14.18;;;9.23;;
75971;SDS011;64651;47.540;19.088;2023-04-24T11:50:50;15.45;;;10.10;;
75971;SDS011;64651;47.540;19.088;2023-04-24T11:55:53;14.87;;;10.50;;
75971;SDS011;64651;47.540;19.088;2023-04-24T12:00:56;16.02;;;10.02;;
75971;SDS011;64651;47.540;19.088;2023-04-24T12:06:06;16.77;;;10.70;;
75971;SDS011;64651;47.540;19.088;2023-04-24T12:11:10;17.55;;;12.20;;
75971;SDS011;64651;47.540;19.088;2023-04-24T12:16:13;17.80;;;11.68;;
75971;SDS011;64651;47.540;19.088;2023-04-24T12:21:26;18.43;;;11.43;;
75971;SDS011;64651;47.540;19.088;2023-04-24T12:26:30;18.85;;;10.48;;
75971;SDS011;64651;47.540;19.088;2023-04-24T12:31:32;16.47;;;10.53;;
75971;SDS011;64651;47.540;19.088;2023-04-24T12:36:35;15.15;;;9.48;;
75971;SDS011;64651;47.540;19.088;2023-04-24T12:41:37;16.30;;;9.75;;
75971;SDS011;64651;47.540;19.088;2023-04-24T12:46:39;16.53;;;10.17;;
75971;SDS011;64651;47.540;19.088;2023-04-24T12:51:41;19.75;;;11.25;;
75971;SDS011;64651;47.540;19.088;2023-04-24T12:56:44;18.43;;;10.73;;
75971;SDS011;64651;47.540;19.088;2023-04-24T13:01:46;19.05;;;10.13;;
75971;SDS011;64651;47.540;19.088;2023-04-24T13:06:48;14.75;;;8.48;;
75971;SDS011;64651;47.540;19.088;2023-04-24T13:11:51;18.02;;;9.57;;
75971;SDS011;64651;47.540;19.088;2023-04-24T13:16:53;15.50;;;8.50;;
75971;SDS011;64651;47.540;19.088;2023-04-24T13:21:56;15.13;;;8.17;;
75971;SDS011;64651;47.540;19.088;2023-04-24T13:26:59;13.95;;;7.00;;
75971;SDS011;64651;47.540;19.088;2023-04-24T13:32:02;12.50;;;6.50;;
75971;SDS011;64651;47.540;19.088;2023-04-24T13:37:05;10.67;;;5.10;;
75971;SDS011;64651;47.540;19.088;2023-04-24T13:42:08;12.73;;;5.07;;
75971;SDS011;64651;47.540;19.088;2023-04-24T13:47:12;12.23;;;5.40;;
75971;SDS011;64651;47.540;19.088;2023-04-24T13:52:14;11.20;;;5.12;;
75971;SDS011;64651;47.540;19.088;2023-04-24T13:57:17;23.38;;;6.43;;
75971;SDS011;64651;47.540;19.088;2023-04-24T14:02:19;15.52;;;8.38;;
75971;SDS011;64651;47.540;19.088;2023-04-24T14:07:22;24.92;;;10.73;;
75971;SDS011;64651;47.540;19.088;2023-04-24T14:12:25;16.00;;;9.00;;
75971;SDS011;64651;47.540;19.088;2023-04-24T14:17:27;24.25;;;10.18;;
75971;SDS011;64651;47.540;19.088;2023-04-24T14:22:29;33.75;;;11.38;;
75971;SDS011;64651;47.540;19.088;2023-04-24T14:27:32;23.95;;;11.70;;
75971;SDS011;64651;47.540;19.088;2023-04-24T14:32:38;23.77;;;11.20;;
75971;SDS011;64651;47.540;19.088;2023-04-24T14:37:41;22.03;;;10.90;;
75971;SDS011;64651;47.540;19.088;2023-04-24T14:42:44;20.95;;;11.75;;
75971;SDS011;64651;47.540;19.088;2023-04-24T14:47:47;22.13;;;11.50;;
75971;SDS011;64651;47.540;19.088;2023-04-24T14:52:49;23.52;;;12.60;;
75971;SDS011;64651;47.540;19.088;2023-04-24T14:57:52;23.75;;;12.93;;
75971;SDS011;64651;47.540;19.088;2023-04-24T15:02:55;27.93;;;13.67;;
75971;SDS011;64651;47.540;19.088;2023-04-24T15:07:58;19.62;;;11.48;;
75971;SDS011;64651;47.540;19.088;2023-04-24T15:13:00;19.33;;;11.45;;
75971;SDS011;64651;47.540;19.088;2023-04-24T15:18:04;19.70;;;11.87;;
75971;SDS011;64651;47.540;19.088;2023-04-24T15:23:08;18.70;;;10.82;;
75971;SDS011;64651;47.540;19.088;2023-04-24T15:28:11;17.70;;;10.13;;
75971;SDS011;64651;47.540;19.088;2023-04-24T15:33:13;16.30;;;8.48;;
75971;SDS011;64651;47.540;19.088;2023-04-24T15:38:16;16.27;;;9.43;;
75971;SDS011;64651;47.540;19.088;2023-04-24T15:43:18;15.73;;;8.13;;
75971;SDS011;64651;47.540;19.088;2023-04-24T15:48:21;16.10;;;7.78;;
75971;SDS011;64651;47.540;19.088;2023-04-24T15:53:23;13.67;;;7.43;;
75971;SDS011;64651;47.540;19.088;2023-04-24T15:58:25;13.30;;;7.20;;
75971;SDS011;64651;47.540;19.088;2023-04-24T16:03:28;13.00;;;6.55;;
75971;SDS011;64651;47.540;19.088;2023-04-24T16:08:34;12.43;;;6.68;;
75971;SDS011;64651;47.540;19.088;2023-04-24T16:13:37;11.63;;;6.45;;
75971;SDS011;64651;47.540;19.088;2023-04-24T16:18:39;14.50;;;6.83;;
75971;SDS011;64651;47.540;19.088;2023-04-24T16:23:41;12.32;;;6.37;;
75971;SDS011;64651;47.540;19.088;2023-04-24T16:28:47;12.40;;;6.82;;
75971;SDS011;64651;47.540;19.088;2023-04-24T16:33:50;12.15;;;6.75;;
75971;SDS011;64651;47.540;19.088;2023-04-24T16:38:54;13.30;;;7.30;;
75971;SDS011;64651;47.540;19.088;2023-04-24T16:43:56;13.13;;;6.63;;
75971;SDS011;64651;47.540;19.088;2023-04-24T16:48:59;12.18;;;7.07;;
75971;SDS011;64651;47.540;19.088;2023-04-24T16:54:01;12.25;;;6.80;;
75971;SDS011;64651;47.540;19.088;2023-04-24T16:59:03;12.35;;;6.12;;
75971;SDS011;64651;47.540;19.088;2023-04-24T17:04:06;14.23;;;7.25;;
75971;SDS011;64651;47.540;19.088;2023-04-24T17:09:09;11.63;;;6.43;;
75971;SDS011;64651;47.540;19.088;2023-04-24T17:14:13;12.43;;;6.80;;
75971;SDS011;64651;47.540;19.088;2023-04-24T17:19:16;12.20;;;6.62;;
75971;SDS011;64651;47.540;19.088;2023-04-24T17:24:18;14.32;;;7.32;;
75971;SDS011;64651;47.540;19.088;2023-04-24T17:29:20;12.77;;;7.15;;
75971;SDS011;64651;47.540;19.088;2023-04-24T17:34:22;12.90;;;7.10;;
75971;SDS011;64651;47.540;19.088;2023-04-24T17:39:25;12.05;;;6.97;;
75971;SDS011;64651;47.540;19.088;2023-04-24T17:44:30;12.50;;;6.75;;
75971;SDS011;64651;47.540;19.088;2023-04-24T17:49:33;12.13;;;6.40;;
75971;SDS011;64651;47.540;19.088;2023-04-24T17:54:35;10.50;;;5.70;;
75971;SDS011;64651;47.540;19.088;2023-04-24T17:59:37;10.23;;;5.40;;
75971;SDS011;64651;47.540;19.088;2023-04-24T18:04:40;9.18;;;4.37;;
75971;SDS011;64651;47.540;19.088;2023-04-24T18:09:44;9.25;;;4.20;;
75971;SDS011;64651;47.540;19.088;2023-04-24T18:14:47;9.45;;;3.90;;
75971;SDS011;64651;47.540;19.088;2023-04-24T18:19:50;7.47;;;3.25;;
75971;SDS011;64651;47.540;19.088;2023-04-24T18:24:52;8.10;;;3.67;;
75971;SDS011;64651;47.540;19.088;2023-04-24T18:29:54;9.20;;;3.95;;
75971;SDS011;64651;47.540;19.088;2023-04-24T18:34:58;9.18;;;3.72;;
75971;SDS011;64651;47.540;19.088;2023-04-24T18:40:00;8.95;;;3.80;;
75971;SDS011;64651;47.540;19.088;2023-04-24T18:45:03;10.50;;;4.50;;
75971;SDS011;64651;47.540;19.088;2023-04-24T18:50:06;10.07;;;4.57;;
75971;SDS011;64651;47.540;19.088;2023-04-24T18:55:08;8.88;;;4.07;;
75971;SDS011;64651;47.540;19.088;2023-04-24T19:00:12;9.52;;;4.00;;
75971;SDS011;64651;47.540;19.088;2023-04-24T19:05:15;8.68;;;3.90;;
75971;SDS011;64651;47.540;19.088;2023-04-24T19:10:17;8.98;;;3.83;;
75971;SDS011;64651;47.540;19.088;2023-04-24T19:15:19;10.57;;;4.23;;
75971;SDS011;64651;47.540;19.088;2023-04-24T19:20:21;8.85;;;4.22;;
75971;SDS011;64651;47.540;19.088;2023-04-24T19:25:23;8.20;;;3.40;;
75971;SDS011;64651;47.540;19.088;2023-04-24T19:30:26;8.57;;;3.67;;
75971;SDS011;64651;47.540;19.088;2023-04-24T19:35:28;10.20;;;3.90;;
75971;SDS011;64651;47.540;19.088;2023-04-24T19:40:30;9.73;;;3.37;;
75971;SDS011;64651;47.540;19.088;2023-04-24T19:45:32;8.93;;;3.17;;
75971;SDS011;64651;47.540;19.088;2023-04-24T19:50:35;7.80;;;3.00;;
75971;SDS011;64651;47.540;19.088;2023-04-24T19:55:38;8.57;;;3.40;;
75971;SDS011;64651;47.540;19.088;2023-04-24T20:00:40;9.38;;;3.17;;
75971;SDS011;64651;47.540;19.088;2023-04-24T20:05:42;7.97;;;2.80;;
75971;SDS011;64651;47.540;19.088;2023-04-24T20:10:45;7.93;;;2.97;;
75971;SDS011;64651;47.540;19.088;2023-04-24T20:15:47;8.15;;;3.20;;
75971;SDS011;64651;47.540;19.088;2023-04-24T20:20:49;7.35;;;2.95;;
75971;SDS011;64651;47.540;19.088;2023-04-24T20:25:57;8.50;;;3.00;;
75971;SDS011;64651;47.540;19.088;2023-04-24T20:30:59;8.10;;;3.50;;
75971;SDS011;64651;47.540;19.088;2023-04-24T20:36:02;8.10;;;3.37;;
75971;SDS011;64651;47.540;19.088;2023-04-24T20:41:05;7.87;;;3.40;;
75971;SDS011;64651;47.540;19.088;2023-04-24T20:46:09;9.05;;;3.42;;
75971;SDS011;64651;47.540;19.088;2023-04-24T20:51:12;9.57;;;3.33;;
75971;SDS011;64651;47.540;19.088;2023-04-24T20:56:15;8.50;;;3.70;;
75971;SDS011;64651;47.540;19.088;2023-04-24T21:01:17;7.87;;;3.15;;
75971;SDS011;64651;47.540;19.088;2023-04-24T21:06:20;8.30;;;3.50;;
75971;SDS011;64651;47.540;19.088;2023-04-24T21:11:22;8.48;;;3.50;;
75971;SDS011;64651;47.540;19.088;2023-04-24T21:16:24;8.45;;;3.53;;
75971;SDS011;64651;47.540;19.088;2023-04-24T21:21:27;7.80;;;3.30;;
75971;SDS011;64651;47.540;19.088;2023-04-24T21:26:29;8.43;;;3.58;;
75971;SDS011;64651;47.540;19.088;2023-04-24T21:31:32;7.60;;;3.22;;
75971;SDS011;64651;47.540;19.088;2023-04-24T21:36:34;7.93;;;3.08;;
75971;SDS011;64651;47.540;19.088;2023-04-24T21:41:36;8.40;;;3.08;;
75971;SDS011;64651;47.540;19.088;2023-04-24T21:46:39;10.33;;;3.13;;
75971;SDS011;64651;47.540;19.088;2023-04-24T21:51:43;8.68;;;3.20;;
75971;SDS011;64651;47.540;19.088;2023-04-24T21:56:45;8.18;;;3.15;;
75971;SDS011;64651;47.540;19.088;2023-04-24T22:01:47;7.07;;;2.80;;
75971;SDS011;64651;47.540;19.088;2023-04-24T22:06:50;7.93;;;3.42;;
75971;SDS011;64651;47.540;19.088;2023-04-24T22:11:54;7.70;;;2.80;;
75971;SDS011;64651;47.540;19.088;2023-04-24T22:16:56;7.22;;;2.78;;
75971;SDS011;64651;47.540;19.088;2023-04-24T22:21:58;7.37;;;2.70;;
75971;SDS011;64651;47.540;19.088;2023-04-24T22:27:00;7.18;;;2.67;;
75971;SDS011;64651;47.540;19.088;2023-04-24T22:32:03;7.55;;;2.67;;
75971;SDS011;64651;47.540;19.088;2023-04-24T22:37:06;7.80;;;2.50;;
75971;SDS011;64651;47.540;19.088;2023-04-24T22:42:08;6.60;;;2.62;;
75971;SDS011;64651;47.540;19.088;2023-04-24T22:47:11;7.05;;;2.80;;
75971;SDS011;64651;47.540;19.088;2023-04-24T22:52:13;6.97;;;2.78;;
75971;SDS011;64651;47.540;19.088;2023-04-24T22:57:16;7.30;;;2.80;;
75971;SDS011;64651;47.540;19.088;2023-04-24T23:02:18;7.40;;;2.97;;
75971;SDS011;64651;47.540;19.088;2023-04-24T23:07:20;7.05;;;3.15;;
75971;SDS011;64651;47.540;19.088;2023-04-24T23:12:23;6.80;;;3.08;;
75971;SDS011;64651;47.540;19.088;2023-04-24T23:17:25;6.60;;;2.80;;
75971;SDS011;64651;47.540;19.088;2023-04-24T23:22:27;7.85;;;2.60;;
75971;SDS011;64651;47.540;19.088;2023-04-24T23:27:29;7.37;;;2.77;;
75971;SDS011;64651;47.540;19.088;2023-04-24T23:32:32;6.12;;;2.12;;
75971;SDS011;64651;47.540;19.088;2023-04-24T23:37:34;6.20;;;1.98;;
75971;SDS011;64651;47.540;19.088;2023-04-24T23:42:39;6.03;;;2.03;;
75971;SDS011;64651;47.540;19.088;2023-04-24T23:47:41;6.25;;;2.00;;
75971;SDS011;64651;47.540;19.088;2023-04-24T23:52:43;5.37;;;1.83;;
75971;SDS011;64651;47.540;19.088;2023-04-24T23:57:46;7.60;;;2.10;;
